createdAt,value
2023-02-24T00:02:01.301Z,100480.91
2023-02-24T00:04:34.942Z,100476.97
2023-02-24T00:07:03.090Z,100478.66
2023-02-24T00:09:35.829Z,100484.28
2023-02-24T00:12:13.317Z,100475.41
2023-02-24T00:14:43.105Z,100464.25
2023-02-24T00:17:14.720Z,100467.13
2023-02-24T00:19:42.495Z,100469.81
2023-02-24T00:22:10.076Z,100462.47
2023-02-24T00:24:39.504Z,100467.59
2023-02-24T00:27:12.475Z,100470.88
2023-02-24T00:29:42.244Z,100471.13
2023-02-24T00:32:13.163Z,100459.22
2023-02-24T00:34:41.897Z,100465.00
2023-02-24T00:37:15.577Z,100450.34
2023-02-24T00:39:45.084Z,100448.91
2023-02-24T00:42:12.247Z,100450.84
2023-02-24T00:44:45.812Z,100459.63
2023-02-24T00:47:19.118Z,100445.84
2023-02-24T00:49:46.497Z,100454.84
2023-02-24T00:52:19.275Z,100459.22
2023-02-24T00:54:52.650Z,100461.88
2023-02-24T00:57:21.628Z,100449.59
2023-02-24T00:59:51.935Z,100456.78
2023-02-24T01:02:22.702Z,100467.25
2023-02-24T01:04:54.649Z,100470.88
2023-02-24T01:07:22.598Z,100490.31
2023-02-24T01:09:51.203Z,100493.34
2023-02-24T01:12:38.584Z,100488.31
2023-02-24T01:15:09.506Z,100501.81
2023-02-24T01:17:39.556Z,100514.00
2023-02-24T01:20:19.024Z,100507.03
2023-02-24T01:22:49.361Z,100501.00
2023-02-24T01:25:17.996Z,100499.78
2023-02-24T01:27:50.420Z,100504.94
2023-02-24T01:30:18.660Z,100515.13
2023-02-24T01:32:47.564Z,100521.44
2023-02-24T01:35:15.253Z,100502.41
2023-02-24T01:37:43.734Z,100537.75
2023-02-24T01:40:19.003Z,100552.56
2023-02-24T01:42:47.924Z,100534.59
2023-02-24T01:45:25.719Z,100522.69
2023-02-24T01:47:54.602Z,100516.38
2023-02-24T01:50:26.399Z,100531.22
2023-02-24T01:52:58.634Z,100541.88
2023-02-24T01:55:35.355Z,100559.59
2023-02-24T01:58:09.771Z,100549.16
2023-02-24T02:00:45.118Z,100544.28
2023-02-24T02:03:36.987Z,100544.50
2023-02-24T02:06:11.425Z,100528.25
2023-02-24T02:08:41.431Z,100532.59
2023-02-24T02:11:13.490Z,100533.69
2023-02-24T02:13:44.561Z,100524.34
2023-02-24T02:16:43.695Z,100526.28
2023-02-24T02:19:13.567Z,100522.50
2023-02-24T02:22:05.712Z,100514.38
2023-02-24T02:25:00.453Z,100521.63
2023-02-24T02:27:29.529Z,100535.94
2023-02-24T02:30:09.415Z,100531.09
2023-02-24T02:33:07.426Z,100510.63
2023-02-24T02:36:00.792Z,100519.44
2023-02-24T02:38:38.119Z,100501.47
2023-02-24T02:41:31.675Z,100507.25
2023-02-24T02:44:14.610Z,100498.47
2023-02-24T02:46:47.079Z,100498.72
2023-02-24T02:49:21.965Z,100481.97
2023-02-24T02:51:56.957Z,100487.09
2023-02-24T02:54:29.246Z,100485.16
2023-02-24T02:57:01.491Z,100487.59
2023-02-24T02:59:31.595Z,100499.22
2023-02-24T03:02:11.857Z,100498.44
2023-02-24T03:04:43.670Z,100523.16
2023-02-24T03:07:14.557Z,100531.66
2023-02-24T03:09:46.390Z,100535.06
2023-02-24T03:12:19.386Z,100521.22
2023-02-24T03:14:57.561Z,100503.97
2023-02-24T03:17:28.953Z,100507.84
2023-02-24T03:20:15.117Z,100501.28
2023-02-24T03:23:07.372Z,100498.78
2023-02-24T03:25:53.472Z,100494.94
2023-02-24T03:28:30.458Z,100502.19
2023-02-24T03:31:23.045Z,100519.63
2023-02-24T03:34:03.856Z,100521.34
2023-02-24T03:36:33.316Z,100516.97
2023-02-24T03:39:02.208Z,100515.91
2023-02-24T03:41:41.233Z,100508.53
2023-02-24T03:44:11.704Z,100497.03
2023-02-24T03:46:42.733Z,100497.63
2023-02-24T03:49:12.658Z,100508.53
2023-02-24T03:51:44.966Z,100505.59
2023-02-24T03:54:44.318Z,100490.69
2023-02-24T03:57:23.347Z,100492.66
2023-02-24T04:00:22.862Z,100481.16
2023-02-24T04:03:03.618Z,100485.31
2023-02-24T04:05:35.382Z,100486.88
2023-02-24T04:08:07.891Z,100489.03
2023-02-24T04:10:52.744Z,100489.03
2023-02-24T04:13:43.376Z,100490.31
2023-02-24T04:16:29.185Z,100493.31
2023-02-24T04:19:04.023Z,100492.13
2023-02-24T04:21:37.258Z,100480.75
2023-02-24T04:24:11.594Z,100482.66
2023-02-24T04:26:40.793Z,100482.28
2023-02-24T04:29:11.664Z,100479.72
2023-02-24T04:31:42.724Z,100479.50
2023-02-24T04:34:09.921Z,100478.97
2023-02-24T04:36:39.757Z,100483.00
2023-02-24T04:39:07.830Z,100482.91
2023-02-24T04:41:35.902Z,100491.00
2023-02-24T04:44:02.830Z,100475.47
2023-02-24T04:46:32.669Z,100485.06
2023-02-24T04:49:02.327Z,100491.13
2023-02-24T04:51:31.915Z,100489.09
2023-02-24T04:53:58.801Z,100481.94
2023-02-24T04:56:25.778Z,100483.63
2023-02-24T04:58:52.648Z,100480.97
2023-02-24T05:01:19.821Z,100486.53
2023-02-24T05:03:47.795Z,100487.16
2023-02-24T05:06:16.786Z,100483.53
2023-02-24T05:08:44.147Z,100489.72
2023-02-24T05:11:18.537Z,100493.56
2023-02-24T05:13:46.173Z,100491.63
2023-02-24T05:16:16.868Z,100489.19
2023-02-24T05:18:44.903Z,100484.63
2023-02-24T05:21:33.991Z,100494.22
2023-02-24T05:24:07.063Z,100485.38
2023-02-24T05:26:37.156Z,100490.63
2023-02-24T05:29:06.806Z,100487.88
2023-02-24T05:31:34.653Z,100494.13
2023-02-24T05:34:07.845Z,100500.22
2023-02-24T05:36:40.096Z,100500.84
2023-02-24T05:39:08.146Z,100498.94
2023-02-24T05:41:38.840Z,100497.56
2023-02-24T05:44:10.950Z,100498.00
2023-02-24T05:46:40.852Z,100490.97
2023-02-24T05:49:14.907Z,100491.91
2023-02-24T05:51:54.853Z,100485.44
2023-02-24T05:54:26.030Z,100492.56
2023-02-24T05:56:53.015Z,100502.38
2023-02-24T05:59:21.657Z,100503.66
2023-02-24T06:01:53.396Z,100504.41
2023-02-24T06:04:39.360Z,100491.09
2023-02-24T06:07:13.668Z,100494.94
2023-02-24T06:09:45.145Z,100488.13
2023-02-24T06:12:17.021Z,100498.53
2023-02-24T06:14:45.221Z,100487.50
2023-02-24T06:17:12.631Z,100491.13
2023-02-24T06:19:41.362Z,100496.22
2023-02-24T06:22:12.152Z,100495.38
2023-02-24T06:24:44.362Z,100502.28
2023-02-24T06:27:17.986Z,100499.19
2023-02-24T06:29:46.568Z,100509.84
2023-02-24T06:32:13.485Z,100503.28
2023-02-24T06:34:41.337Z,100512.06
2023-02-24T06:37:11.106Z,100505.16
2023-02-24T06:39:37.974Z,100498.13
2023-02-24T06:42:05.966Z,100504.97
2023-02-24T06:44:34.074Z,100496.88
2023-02-24T06:47:01.641Z,100494.09
2023-02-24T06:49:29.641Z,100494.31
2023-02-24T06:51:58.160Z,100497.09
2023-02-24T06:54:30.658Z,100500.50
2023-02-24T06:57:00.620Z,100502.41
2023-02-24T06:59:30.476Z,100507.94
2023-02-24T07:01:59.687Z,100515.13
2023-02-24T07:04:28.889Z,100517.00
2023-02-24T07:07:03.671Z,100527.78
2023-02-24T07:09:32.202Z,100527.00
2023-02-24T07:12:02.705Z,100531.34
2023-02-24T07:14:33.464Z,100528.78
2023-02-24T07:17:00.730Z,100533.63
2023-02-24T07:19:30.226Z,100527.38
2023-02-24T07:22:03.575Z,100532.44
2023-02-24T07:24:33.645Z,100545.91
2023-02-24T07:27:06.350Z,100541.81
2023-02-24T07:29:35.075Z,100542.72
2023-02-24T07:32:05.838Z,100547.28
2023-02-24T07:34:34.063Z,100550.44
2023-02-24T07:37:08.321Z,100559.69
2023-02-24T07:39:39.745Z,100560.00
2023-02-24T07:42:13.494Z,100561.19
2023-02-24T07:44:46.643Z,100559.09
2023-02-24T07:47:16.149Z,100561.81
2023-02-24T07:49:43.820Z,100565.88
2023-02-24T07:52:11.782Z,100572.63
2023-02-24T07:54:39.488Z,100578.66
2023-02-24T07:57:14.136Z,100575.34
2023-02-24T07:59:48.774Z,100574.66
2023-02-24T08:02:16.939Z,100569.56
2023-02-24T08:04:50.414Z,100576.69
2023-02-24T08:07:25.265Z,100569.09
2023-02-24T08:10:14.413Z,100576.81
2023-02-24T08:12:45.223Z,100583.94
2023-02-24T08:15:23.826Z,100589.41
2023-02-24T08:17:59.750Z,100583.66
2023-02-24T08:20:47.960Z,100596.50
2023-02-24T08:23:14.937Z,100589.19
2023-02-24T08:25:44.650Z,100593.50
2023-02-24T08:28:12.415Z,100607.19
2023-02-24T08:30:46.289Z,100602.00
2023-02-24T08:33:19.967Z,100596.81
2023-02-24T08:35:52.358Z,100597.56
2023-02-24T08:38:24.301Z,100598.81
2023-02-24T08:40:55.203Z,100607.22
2023-02-24T08:43:31.163Z,100613.91
2023-02-24T08:46:18.745Z,100612.34
2023-02-24T08:48:50.216Z,100615.81
2023-02-24T08:51:22.827Z,100625.09
2023-02-24T08:53:54.760Z,100620.22
2023-02-24T08:56:28.990Z,100624.22
2023-02-24T08:58:57.352Z,100620.22
2023-02-24T09:01:35.585Z,100629.06
2023-02-24T09:04:06.912Z,100628.47
2023-02-24T09:06:36.872Z,100624.56
2023-02-24T09:09:17.666Z,100630.59
2023-02-24T09:11:50.330Z,100623.63
2023-02-24T09:14:27.011Z,100630.88
2023-02-24T09:17:11.644Z,100621.97
2023-02-24T09:19:48.134Z,100633.22
2023-02-24T09:22:32.718Z,100620.50
2023-02-24T09:25:19.055Z,100621.09
2023-02-24T09:28:10.567Z,100620.44
2023-02-24T09:30:51.948Z,100609.78
2023-02-24T09:33:22.437Z,100622.63
2023-02-24T09:36:15.920Z,100619.69
2023-02-24T09:39:01.281Z,100617.94
2023-02-24T09:41:53.469Z,100622.25
2023-02-24T09:44:42.623Z,100624.69
2023-02-24T09:47:31.438Z,100620.13
2023-02-24T09:50:14.385Z,100627.03
2023-02-24T09:52:41.711Z,100622.88
2023-02-24T09:55:25.379Z,100621.03
2023-02-24T09:58:18.652Z,100624.44
2023-02-24T10:01:21.741Z,100634.09
2023-02-24T10:04:14.829Z,100638.06
2023-02-24T10:07:14.543Z,100642.38
2023-02-24T10:09:46.937Z,100633.00
2023-02-24T10:12:19.272Z,100643.78
2023-02-24T10:15:32.317Z,100649.84
2023-02-24T10:18:13.384Z,100654.41
2023-02-24T10:20:45.803Z,100653.88
2023-02-24T10:23:12.717Z,100660.00
2023-02-24T10:25:54.339Z,100658.31
2023-02-24T10:28:38.011Z,100650.53
2023-02-24T10:31:26.918Z,100652.19
2023-02-24T10:34:06.356Z,100656.38
2023-02-24T10:36:38.253Z,100661.84
2023-02-24T10:39:20.832Z,100656.97
2023-02-24T10:41:57.741Z,100663.44
2023-02-24T10:44:39.132Z,100662.44
2023-02-24T10:47:12.076Z,100663.06
2023-02-24T10:49:45.091Z,100651.84
2023-02-24T10:52:33.517Z,100656.19
2023-02-24T10:55:26.471Z,100657.28
2023-02-24T10:58:06.010Z,100646.09
2023-02-24T11:00:59.724Z,100641.94
2023-02-24T11:03:57.772Z,100637.78
2023-02-24T11:06:42.290Z,100635.00
2023-02-24T11:09:30.377Z,100634.44
2023-02-24T11:12:19.125Z,100629.31
2023-02-24T11:15:09.334Z,100639.38
2023-02-24T11:17:38.259Z,100628.75
2023-02-24T11:20:16.001Z,100629.63
2023-02-24T11:22:45.897Z,100630.72
2023-02-24T11:25:36.545Z,100625.69
2023-02-24T11:28:04.808Z,100624.66
2023-02-24T11:31:04.892Z,100626.34
2023-02-24T11:33:31.867Z,100623.97
2023-02-24T11:36:12.948Z,100619.31
2023-02-24T11:39:15.446Z,100622.19
2023-02-24T11:41:53.331Z,100617.31
2023-02-24T11:44:58.281Z,100600.19
2023-02-24T11:47:57.462Z,100596.97
2023-02-24T11:50:30.859Z,100581.19
2023-02-24T11:53:01.658Z,100588.31
2023-02-24T11:55:51.559Z,100576.59
2023-02-24T11:58:27.508Z,100564.09
2023-02-24T12:01:01.580Z,100562.41
2023-02-24T12:03:34.497Z,100548.00
2023-02-24T12:06:17.366Z,100540.94
2023-02-24T12:08:49.585Z,100525.34
2023-02-24T12:11:45.368Z,100521.19
2023-02-24T12:14:35.393Z,100541.25
2023-02-24T12:17:18.326Z,100531.34
2023-02-24T12:20:15.989Z,100516.44
2023-02-24T12:23:10.752Z,100529.19
2023-02-24T12:26:09.196Z,100519.50
2023-02-24T12:29:16.290Z,100515.31
2023-02-24T12:32:00.721Z,100506.09
2023-02-24T12:34:46.220Z,100508.19
2023-02-24T12:37:46.728Z,100506.84
2023-02-24T12:40:16.472Z,100498.56
2023-02-24T12:42:51.818Z,100490.06
2023-02-24T12:46:00.094Z,100493.22
2023-02-24T12:48:45.889Z,100469.28
2023-02-24T12:51:50.168Z,100473.34
2023-02-24T12:54:24.781Z,100475.03
2023-02-24T12:57:15.754Z,100470.97
2023-02-24T12:59:42.906Z,100472.41
2023-02-24T13:02:27.933Z,100481.56
2023-02-24T13:05:13.601Z,100465.06
2023-02-24T13:07:43.305Z,100465.13
2023-02-24T13:10:32.170Z,100454.88
2023-02-24T13:13:28.254Z,100447.28
2023-02-24T13:15:57.525Z,100433.81
2023-02-24T13:18:30.743Z,100434.53
2023-02-24T13:21:24.839Z,100424.88
2023-02-24T13:24:01.221Z,100419.00
2023-02-24T13:26:31.476Z,100428.47
2023-02-24T13:29:19.174Z,100421.75
2023-02-24T13:31:49.565Z,100410.78
2023-02-24T13:34:44.099Z,100402.84
2023-02-24T13:37:11.627Z,100394.09
2023-02-24T13:39:44.438Z,100389.00
2023-02-24T13:42:22.032Z,100384.31
2023-02-24T13:45:10.471Z,100373.69
2023-02-24T13:48:04.012Z,100374.84
2023-02-24T13:50:58.995Z,100363.53
2023-02-24T13:53:37.968Z,100370.44
2023-02-24T13:56:18.759Z,100368.41
2023-02-24T13:59:16.812Z,100366.41
2023-02-24T14:02:04.118Z,100364.72
2023-02-24T14:04:33.496Z,100352.22
2023-02-24T14:07:04.848Z,100361.34
2023-02-24T14:09:38.010Z,100349.53
2023-02-24T14:12:13.212Z,100361.47
2023-02-24T14:14:43.107Z,100356.41
2023-02-24T14:17:39.434Z,100350.19
2023-02-24T14:20:22.018Z,100350.88
2023-02-24T14:22:59.011Z,100349.53
2023-02-24T14:25:38.864Z,100348.66
2023-02-24T14:28:06.224Z,100348.31
2023-02-24T14:30:37.133Z,100346.13
2023-02-24T14:33:07.054Z,100336.69
2023-02-24T14:35:42.077Z,100344.38
2023-02-24T14:38:30.728Z,100352.97
2023-02-24T14:40:58.434Z,100357.13
2023-02-24T14:43:25.834Z,100357.44
2023-02-24T14:45:54.417Z,100360.84
2023-02-24T14:48:26.068Z,100356.31
2023-02-24T14:50:58.084Z,100364.88
2023-02-24T14:53:28.382Z,100359.44
2023-02-24T14:55:57.455Z,100353.06
2023-02-24T14:58:32.965Z,100356.75
2023-02-24T15:01:05.749Z,100343.25
2023-02-24T15:03:48.764Z,100335.16
2023-02-24T15:06:28.872Z,100332.25
2023-02-24T15:09:01.469Z,100322.41
2023-02-24T15:11:31.496Z,100318.22
2023-02-24T15:14:06.269Z,100320.59
2023-02-24T15:16:39.928Z,100312.16
2023-02-24T15:19:29.926Z,100300.47
2023-02-24T15:21:57.615Z,100307.06
2023-02-24T15:24:29.912Z,100297.25
2023-02-24T15:26:59.996Z,100296.16
2023-02-24T15:29:30.792Z,100297.16
2023-02-24T15:32:00.384Z,100294.53
2023-02-24T15:34:35.104Z,100292.03
2023-02-24T15:37:04.551Z,100287.06
2023-02-24T15:39:34.330Z,100292.03
2023-02-24T15:42:23.811Z,100291.72
2023-02-24T15:44:53.365Z,100301.09
2023-02-24T15:47:26.483Z,100301.81
2023-02-24T15:49:53.388Z,100306.47
2023-02-24T15:52:23.894Z,100293.19
2023-02-24T15:54:51.298Z,100288.59
2023-02-24T15:57:20.235Z,100278.50
2023-02-24T15:59:48.457Z,100278.50
2023-02-24T16:02:21.404Z,100277.16
2023-02-24T16:04:49.346Z,100268.59
2023-02-24T16:07:20.066Z,100273.69
2023-02-24T16:09:49.076Z,100268.59
2023-02-24T16:12:35.952Z,100269.44
2023-02-24T16:15:06.955Z,100269.44
2023-02-24T16:17:39.233Z,100266.13
2023-02-24T16:20:12.657Z,100272.22
2023-02-24T16:22:39.594Z,100273.34
2023-02-24T16:25:07.581Z,100272.84
2023-02-24T16:27:34.786Z,100273.13
2023-02-24T16:30:01.937Z,100269.25
2023-02-24T16:32:29.125Z,100274.09
2023-02-24T16:34:57.304Z,100268.66
2023-02-24T16:37:29.793Z,100274.28
2023-02-24T16:39:59.279Z,100271.88
2023-02-24T16:42:26.320Z,100265.41
2023-02-24T16:44:53.328Z,100266.34
2023-02-24T16:47:24.623Z,100265.50
2023-02-24T16:49:56.299Z,100260.13
2023-02-24T16:52:25.117Z,100256.22
2023-02-24T16:54:52.389Z,100258.84
2023-02-24T16:57:19.422Z,100256.75
2023-02-24T16:59:46.650Z,100245.34
2023-02-24T17:02:21.877Z,100251.72
2023-02-24T17:04:50.142Z,100256.69
2023-02-24T17:07:21.364Z,100252.47
2023-02-24T17:09:48.403Z,100253.91
2023-02-24T17:12:21.729Z,100251.13
2023-02-24T17:14:49.242Z,100256.81
2023-02-24T17:17:16.223Z,100260.56
2023-02-24T17:19:43.348Z,100257.03
2023-02-24T17:22:10.513Z,100261.53
2023-02-24T17:24:37.440Z,100262.84
2023-02-24T17:27:04.822Z,100260.63
2023-02-24T17:29:31.657Z,100260.69
2023-02-24T17:31:58.687Z,100268.88
2023-02-24T17:34:25.773Z,100276.00
2023-02-24T17:36:53.539Z,100277.69
2023-02-24T17:39:20.468Z,100279.97
2023-02-24T17:41:47.360Z,100276.75
2023-02-24T17:44:14.459Z,100280.03
2023-02-24T17:46:41.376Z,100283.84
2023-02-24T17:49:08.665Z,100291.13
2023-02-24T17:51:35.566Z,100292.84
2023-02-24T17:54:02.507Z,100289.75
2023-02-24T17:56:29.578Z,100293.69
2023-02-24T17:58:59.049Z,100292.59
2023-02-24T18:01:29.022Z,100291.16
2023-02-24T18:03:57.608Z,100288.06
2023-02-24T18:06:25.220Z,100299.06
2023-02-24T18:08:52.183Z,100296.69
2023-02-24T18:11:20.359Z,100303.91
2023-02-24T18:13:50.922Z,100298.13
2023-02-24T18:16:18.126Z,100294.91
2023-02-24T18:18:45.259Z,100293.38
2023-02-24T18:21:12.359Z,100296.31
2023-02-24T18:23:40.621Z,100300.84
2023-02-24T18:26:10.543Z,100312.13
2023-02-24T18:28:38.806Z,100310.56
2023-02-24T18:31:17.732Z,100299.13
2023-02-24T18:33:45.403Z,100300.00
2023-02-24T18:36:12.909Z,100305.63
2023-02-24T18:38:39.996Z,100304.91
2023-02-24T18:41:09.713Z,100302.66
2023-02-24T18:43:37.107Z,100303.66
2023-02-24T18:46:06.836Z,100310.44
2023-02-24T18:48:35.061Z,100314.81
2023-02-24T18:51:02.512Z,100322.00
2023-02-24T18:53:33.809Z,100314.94
2023-02-24T18:56:07.173Z,100319.44
2023-02-24T18:58:34.717Z,100322.84
2023-02-24T19:01:01.673Z,100323.50
2023-02-24T19:03:28.680Z,100326.91
2023-02-24T19:05:55.616Z,100330.63
2023-02-24T19:08:22.567Z,100343.03
2023-02-24T19:10:49.496Z,100343.84
2023-02-24T19:13:16.441Z,100347.06
2023-02-24T19:15:44.928Z,100348.03
2023-02-24T19:18:12.073Z,100342.69
2023-02-24T19:20:42.994Z,100348.88
2023-02-24T19:23:10.852Z,100344.38
2023-02-24T19:25:37.777Z,100348.03
2023-02-24T19:28:04.855Z,100359.31
2023-02-24T19:30:32.017Z,100355.91
2023-02-24T19:32:59.545Z,100364.34
2023-02-24T19:35:26.571Z,100363.50
2023-02-24T19:37:53.443Z,100365.47
2023-02-24T19:40:20.646Z,100364.88
2023-02-24T19:42:49.496Z,100359.22
2023-02-24T19:45:17.148Z,100362.03
2023-02-24T19:47:47.034Z,100372.41
2023-02-24T19:50:15.641Z,100378.75
2023-02-24T19:52:42.957Z,100383.66
2023-02-24T19:55:11.693Z,100385.59
2023-02-24T19:57:39.158Z,100390.22
2023-02-24T20:00:07.286Z,100394.91
2023-02-24T20:02:39.704Z,100397.88
2023-02-24T20:05:07.734Z,100399.97
2023-02-24T20:07:35.033Z,100392.19
2023-02-24T20:10:02.156Z,100399.50
2023-02-24T20:12:29.081Z,100392.47
2023-02-24T20:14:56.186Z,100397.94
2023-02-24T20:17:23.124Z,100395.53
2023-02-24T20:19:50.169Z,100406.22
2023-02-24T20:22:18.398Z,100398.31
2023-02-24T20:24:45.442Z,100401.25
2023-02-24T20:27:12.795Z,100402.63
2023-02-24T20:29:39.750Z,100407.97
2023-02-24T20:32:06.837Z,100412.00
2023-02-24T20:34:36.725Z,100406.06
2023-02-24T20:37:05.527Z,100407.16
2023-02-24T20:39:33.284Z,100404.75
2023-02-24T20:42:01.501Z,100412.19
2023-02-24T20:44:28.878Z,100407.69
2023-02-24T20:46:55.795Z,100406.19
2023-02-24T20:49:22.693Z,100409.97
2023-02-24T20:51:49.776Z,100410.94
2023-02-24T20:54:17.529Z,100409.50
2023-02-24T20:56:46.086Z,100414.00
2023-02-24T20:59:18.691Z,100407.81
2023-02-24T21:01:47.963Z,100413.16
2023-02-24T21:04:17.259Z,100402.47
2023-02-24T21:06:44.288Z,100405.41
2023-02-24T21:09:12.212Z,100403.00
2023-02-24T21:11:39.408Z,100393.97
2023-02-24T21:14:07.232Z,100385.25
2023-02-24T21:16:37.396Z,100377.94
2023-02-24T21:19:04.475Z,100376.28
2023-02-24T21:21:31.357Z,100381.63
2023-02-24T21:23:58.182Z,100371.44
2023-02-24T21:26:27.076Z,100371.44
2023-02-24T21:28:57.418Z,100377.63
2023-02-24T21:31:25.902Z,100372.53
2023-02-24T21:33:53.711Z,100364.66
2023-02-24T21:36:24.179Z,100366.59
2023-02-24T21:38:53.018Z,100362.97
2023-02-24T21:41:20.183Z,100364.66
2023-02-24T21:43:47.382Z,100364.66
2023-02-24T21:46:15.863Z,100359.56
2023-02-24T21:48:43.198Z,100353.50
2023-02-24T21:51:12.810Z,100347.16
2023-02-24T21:53:43.682Z,100349.13
2023-02-24T21:56:18.172Z,100355.47
2023-02-24T21:58:54.526Z,100364.22
2023-02-24T22:01:26.875Z,100351.84
2023-02-24T22:03:59.702Z,100357.19
2023-02-24T22:06:31.483Z,100352.69
2023-02-24T22:09:00.228Z,100344.78
2023-02-24T22:11:27.704Z,100358.88
2023-02-24T22:13:54.697Z,100355.25
2023-02-24T22:16:23.874Z,100355.25
2023-02-24T22:18:52.248Z,100355.25
2023-02-24T22:21:22.624Z,100349.91
2023-02-24T22:23:52.397Z,100349.63
2023-02-24T22:26:20.562Z,100346.25
2023-02-24T22:28:47.854Z,100351.34
2023-02-24T22:31:17.972Z,100363.97
2023-02-24T22:33:46.235Z,100356.47
2023-02-24T22:36:16.107Z,100350.41
2023-02-24T22:38:44.133Z,100353.19
2023-02-24T22:41:15.010Z,100353.56
2023-02-24T22:43:42.020Z,100356.22
2023-02-24T22:46:12.324Z,100359.91
2023-02-24T22:48:39.658Z,100351.16
2023-02-24T22:51:08.838Z,100355.53
2023-02-24T22:53:38.756Z,100350.03
2023-02-24T22:56:06.866Z,100346.66
2023-02-24T22:58:33.855Z,100353.72
2023-02-24T23:01:00.893Z,100351.16
2023-02-24T23:03:33.292Z,100347.53
2023-02-24T23:06:09.263Z,100342.19
2023-02-24T23:08:39.328Z,100343.25
2023-02-24T23:11:12.454Z,100341.44
2023-02-24T23:13:40.994Z,100338.88
2023-02-24T23:16:11.317Z,100343.63
2023-02-24T23:18:38.383Z,100340.00
2023-02-24T23:21:11.517Z,100340.13
2023-02-24T23:23:39.084Z,100333.94
2023-02-24T23:26:06.672Z,100336.59
2023-02-24T23:28:34.005Z,100333.81
2023-02-24T23:31:01.047Z,100332.00
2023-02-24T23:33:28.327Z,100329.34
2023-02-24T23:35:55.330Z,100330.78
2023-02-24T23:38:22.434Z,100338.69
2023-02-24T23:40:50.831Z,100326.31
2023-02-24T23:43:18.641Z,100327.16
2023-02-24T23:45:46.146Z,100324.88
2023-02-24T23:48:14.454Z,100321.34
2023-02-24T23:50:42.737Z,100320.50
2023-02-24T23:53:10.794Z,100319.53
2023-02-24T23:55:40.922Z,100325.72
2023-02-24T23:58:08.384Z,100317.97
